sensor_id;sensor_type;location;lat;lon;timestamp;P1;durP1;ratioP1;P2;durP2;ratioP2
76065;SDS011;64763;48.928;8.474;2024-02-21T00:01:51;7.50;;;2.55;;
76065;SDS011;64763;48.928;8.474;2024-02-21T00:04:17;6.47;;;2.38;;
76065;SDS011;64763;48.928;8.474;2024-02-21T00:06:42;7.70;;;2.65;;
76065;SDS011;64763;48.928;8.474;2024-02-21T00:09:07;3.65;;;2.30;;
76065;SDS011;64763;48.928;8.474;2024-02-21T00:11:34;5.88;;;2.53;;
76065;SDS011;64763;48.928;8.474;2024-02-21T00:14:00;7.55;;;2.40;;
76065;SDS011;64763;48.928;8.474;2024-02-21T00:16:25;6.13;;;2.63;;
76065;SDS011;64763;48.928;8.474;2024-02-21T00:18:50;10.35;;;3.40;;
76065;SDS011;64763;48.928;8.474;2024-02-21T00:21:16;7.22;;;2.95;;
76065;SDS011;64763;48.928;8.474;2024-02-21T00:23:43;6.15;;;2.90;;
76065;SDS011;64763;48.928;8.474;2024-02-21T00:26:11;5.82;;;2.58;;
76065;SDS011;64763;48.928;8.474;2024-02-21T00:28:39;6.57;;;2.70;;
76065;SDS011;64763;48.928;8.474;2024-02-21T00:31:04;10.98;;;3.33;;
76065;SDS011;64763;48.928;8.474;2024-02-21T00:33:30;6.28;;;2.53;;
76065;SDS011;64763;48.928;8.474;2024-02-21T00:35:55;4.45;;;2.30;;
76065;SDS011;64763;48.928;8.474;2024-02-21T00:38:21;9.35;;;2.92;;
76065;SDS011;64763;48.928;8.474;2024-02-21T00:40:46;6.15;;;2.67;;
76065;SDS011;64763;48.928;8.474;2024-02-21T00:43:11;4.60;;;2.97;;
76065;SDS011;64763;48.928;8.474;2024-02-21T00:45:37;11.13;;;3.20;;
76065;SDS011;64763;48.928;8.474;2024-02-21T00:48:02;4.82;;;2.63;;
76065;SDS011;64763;48.928;8.474;2024-02-21T00:50:28;6.97;;;3.03;;
76065;SDS011;64763;48.928;8.474;2024-02-21T00:52:53;7.75;;;2.53;;
76065;SDS011;64763;48.928;8.474;2024-02-21T00:55:18;5.90;;;3.00;;
76065;SDS011;64763;48.928;8.474;2024-02-21T00:57:44;7.22;;;2.60;;
76065;SDS011;64763;48.928;8.474;2024-02-21T01:00:09;10.18;;;3.63;;
76065;SDS011;64763;48.928;8.474;2024-02-21T01:02:35;8.60;;;2.95;;
76065;SDS011;64763;48.928;8.474;2024-02-21T01:05:01;6.30;;;2.83;;
76065;SDS011;64763;48.928;8.474;2024-02-21T01:07:27;6.15;;;2.60;;
76065;SDS011;64763;48.928;8.474;2024-02-21T01:09:52;5.75;;;2.78;;
76065;SDS011;64763;48.928;8.474;2024-02-21T01:12:18;5.20;;;2.20;;
76065;SDS011;64763;48.928;8.474;2024-02-21T01:14:43;7.15;;;2.45;;
76065;SDS011;64763;48.928;8.474;2024-02-21T01:17:09;12.35;;;2.80;;
76065;SDS011;64763;48.928;8.474;2024-02-21T01:19:35;4.82;;;2.40;;
76065;SDS011;64763;48.928;8.474;2024-02-21T01:22:00;6.32;;;2.47;;
76065;SDS011;64763;48.928;8.474;2024-02-21T01:24:25;6.38;;;2.40;;
76065;SDS011;64763;48.928;8.474;2024-02-21T01:26:51;3.63;;;2.13;;
76065;SDS011;64763;48.928;8.474;2024-02-21T01:29:16;6.30;;;2.67;;
76065;SDS011;64763;48.928;8.474;2024-02-21T01:31:41;4.40;;;2.72;;
76065;SDS011;64763;48.928;8.474;2024-02-21T01:34:07;5.68;;;2.90;;
76065;SDS011;64763;48.928;8.474;2024-02-21T01:36:32;9.30;;;2.92;;
76065;SDS011;64763;48.928;8.474;2024-02-21T01:38:58;7.03;;;2.38;;
76065;SDS011;64763;48.928;8.474;2024-02-21T01:41:24;8.35;;;2.60;;
76065;SDS011;64763;48.928;8.474;2024-02-21T01:43:49;7.53;;;2.30;;
76065;SDS011;64763;48.928;8.474;2024-02-21T01:46:15;10.13;;;2.45;;
76065;SDS011;64763;48.928;8.474;2024-02-21T01:48:40;9.80;;;2.75;;
76065;SDS011;64763;48.928;8.474;2024-02-21T01:51:06;9.38;;;2.78;;
76065;SDS011;64763;48.928;8.474;2024-02-21T01:53:35;5.20;;;2.22;;
76065;SDS011;64763;48.928;8.474;2024-02-21T01:56:03;7.35;;;2.63;;
76065;SDS011;64763;48.928;8.474;2024-02-21T01:58:30;4.20;;;2.40;;
76065;SDS011;64763;48.928;8.474;2024-02-21T02:00:56;14.43;;;3.05;;
76065;SDS011;64763;48.928;8.474;2024-02-21T02:03:21;5.50;;;2.67;;
76065;SDS011;64763;48.928;8.474;2024-02-21T02:05:48;9.07;;;2.78;;
76065;SDS011;64763;48.928;8.474;2024-02-21T02:08:14;6.50;;;2.50;;
76065;SDS011;64763;48.928;8.474;2024-02-21T02:10:49;4.65;;;2.17;;
76065;SDS011;64763;48.928;8.474;2024-02-21T02:13:15;8.18;;;2.97;;
76065;SDS011;64763;48.928;8.474;2024-02-21T02:15:41;6.50;;;1.90;;
76065;SDS011;64763;48.928;8.474;2024-02-21T02:18:07;6.82;;;2.28;;
76065;SDS011;64763;48.928;8.474;2024-02-21T02:20:32;7.10;;;2.45;;
76065;SDS011;64763;48.928;8.474;2024-02-21T02:23:02;7.10;;;2.30;;
76065;SDS011;64763;48.928;8.474;2024-02-21T02:25:33;7.43;;;3.25;;
76065;SDS011;64763;48.928;8.474;2024-02-21T02:27:59;11.45;;;3.35;;
76065;SDS011;64763;48.928;8.474;2024-02-21T02:30:24;7.68;;;2.65;;
76065;SDS011;64763;48.928;8.474;2024-02-21T02:32:50;8.80;;;2.42;;
76065;SDS011;64763;48.928;8.474;2024-02-21T02:35:15;5.97;;;2.33;;
76065;SDS011;64763;48.928;8.474;2024-02-21T02:37:47;3.47;;;2.30;;
76065;SDS011;64763;48.928;8.474;2024-02-21T02:40:13;7.22;;;3.00;;
76065;SDS011;64763;48.928;8.474;2024-02-21T02:42:38;6.13;;;2.75;;
76065;SDS011;64763;48.928;8.474;2024-02-21T02:45:04;5.15;;;2.75;;
76065;SDS011;64763;48.928;8.474;2024-02-21T02:47:29;5.25;;;2.50;;
76065;SDS011;64763;48.928;8.474;2024-02-21T02:49:54;7.38;;;3.03;;
76065;SDS011;64763;48.928;8.474;2024-02-21T02:52:20;5.32;;;2.67;;
76065;SDS011;64763;48.928;8.474;2024-02-21T02:54:45;6.57;;;3.15;;
76065;SDS011;64763;48.928;8.474;2024-02-21T02:57:11;7.03;;;2.40;;
76065;SDS011;64763;48.928;8.474;2024-02-21T02:59:36;7.90;;;2.70;;
76065;SDS011;64763;48.928;8.474;2024-02-21T03:02:02;5.50;;;2.70;;
76065;SDS011;64763;48.928;8.474;2024-02-21T03:04:27;6.95;;;2.47;;
76065;SDS011;64763;48.928;8.474;2024-02-21T03:06:53;6.70;;;2.85;;
76065;SDS011;64763;48.928;8.474;2024-02-21T03:09:18;7.70;;;2.53;;
76065;SDS011;64763;48.928;8.474;2024-02-21T03:11:44;5.47;;;2.60;;
76065;SDS011;64763;48.928;8.474;2024-02-21T03:14:09;7.32;;;2.88;;
76065;SDS011;64763;48.928;8.474;2024-02-21T03:16:38;7.30;;;2.95;;
76065;SDS011;64763;48.928;8.474;2024-02-21T03:19:03;7.53;;;2.40;;
76065;SDS011;64763;48.928;8.474;2024-02-21T03:21:29;6.50;;;2.55;;
76065;SDS011;64763;48.928;8.474;2024-02-21T03:23:54;7.65;;;2.65;;
76065;SDS011;64763;48.928;8.474;2024-02-21T03:26:19;6.97;;;2.83;;
76065;SDS011;64763;48.928;8.474;2024-02-21T03:28:45;4.43;;;2.75;;
76065;SDS011;64763;48.928;8.474;2024-02-21T03:31:11;5.22;;;2.47;;
76065;SDS011;64763;48.928;8.474;2024-02-21T03:33:39;6.03;;;2.40;;
76065;SDS011;64763;48.928;8.474;2024-02-21T03:36:12;4.13;;;2.33;;
76065;SDS011;64763;48.928;8.474;2024-02-21T03:38:38;8.30;;;2.17;;
76065;SDS011;64763;48.928;8.474;2024-02-21T03:41:03;6.47;;;2.08;;
76065;SDS011;64763;48.928;8.474;2024-02-21T03:43:29;5.18;;;2.38;;
76065;SDS011;64763;48.928;8.474;2024-02-21T03:45:54;4.18;;;2.05;;
76065;SDS011;64763;48.928;8.474;2024-02-21T03:48:19;5.45;;;3.28;;
76065;SDS011;64763;48.928;8.474;2024-02-21T03:50:45;8.95;;;3.05;;
76065;SDS011;64763;48.928;8.474;2024-02-21T03:53:11;8.27;;;2.65;;
76065;SDS011;64763;48.928;8.474;2024-02-21T03:55:36;7.57;;;2.28;;
76065;SDS011;64763;48.928;8.474;2024-02-21T03:58:01;6.35;;;2.40;;
76065;SDS011;64763;48.928;8.474;2024-02-21T04:00:27;4.07;;;2.63;;
76065;SDS011;64763;48.928;8.474;2024-02-21T04:02:52;6.63;;;2.80;;
76065;SDS011;64763;48.928;8.474;2024-02-21T04:05:17;7.53;;;2.50;;
76065;SDS011;64763;48.928;8.474;2024-02-21T04:07:43;6.68;;;2.50;;
76065;SDS011;64763;48.928;8.474;2024-02-21T04:10:08;4.72;;;2.67;;
76065;SDS011;64763;48.928;8.474;2024-02-21T04:12:34;7.72;;;2.80;;
76065;SDS011;64763;48.928;8.474;2024-02-21T04:14:59;5.18;;;2.50;;
76065;SDS011;64763;48.928;8.474;2024-02-21T04:17:24;7.72;;;2.63;;
76065;SDS011;64763;48.928;8.474;2024-02-21T04:19:50;9.75;;;3.35;;
76065;SDS011;64763;48.928;8.474;2024-02-21T04:22:15;8.27;;;4.20;;
76065;SDS011;64763;48.928;8.474;2024-02-21T04:24:40;6.80;;;2.63;;
76065;SDS011;64763;48.928;8.474;2024-02-21T04:27:06;9.68;;;3.10;;
76065;SDS011;64763;48.928;8.474;2024-02-21T04:29:31;4.78;;;2.72;;
76065;SDS011;64763;48.928;8.474;2024-02-21T04:31:56;8.10;;;2.60;;
76065;SDS011;64763;48.928;8.474;2024-02-21T04:34:22;6.90;;;3.08;;
76065;SDS011;64763;48.928;8.474;2024-02-21T04:36:47;6.82;;;2.78;;
76065;SDS011;64763;48.928;8.474;2024-02-21T04:39:13;7.35;;;2.97;;
76065;SDS011;64763;48.928;8.474;2024-02-21T04:41:38;6.53;;;2.78;;
76065;SDS011;64763;48.928;8.474;2024-02-21T04:44:03;6.13;;;2.75;;
76065;SDS011;64763;48.928;8.474;2024-02-21T04:46:29;6.05;;;2.65;;
76065;SDS011;64763;48.928;8.474;2024-02-21T04:48:54;9.82;;;2.60;;
76065;SDS011;64763;48.928;8.474;2024-02-21T04:51:20;8.60;;;2.92;;
76065;SDS011;64763;48.928;8.474;2024-02-21T04:53:46;4.20;;;2.40;;
76065;SDS011;64763;48.928;8.474;2024-02-21T04:56:11;6.53;;;3.28;;
76065;SDS011;64763;48.928;8.474;2024-02-21T04:58:39;7.10;;;3.33;;
76065;SDS011;64763;48.928;8.474;2024-02-21T05:01:05;5.75;;;2.97;;
76065;SDS011;64763;48.928;8.474;2024-02-21T05:03:30;3.90;;;2.65;;
76065;SDS011;64763;48.928;8.474;2024-02-21T05:05:56;8.23;;;3.58;;
76065;SDS011;64763;48.928;8.474;2024-02-21T05:08:21;4.85;;;2.58;;
76065;SDS011;64763;48.928;8.474;2024-02-21T05:10:46;8.10;;;2.97;;
76065;SDS011;64763;48.928;8.474;2024-02-21T05:13:12;4.97;;;2.92;;
76065;SDS011;64763;48.928;8.474;2024-02-21T05:15:37;6.03;;;2.78;;
76065;SDS011;64763;48.928;8.474;2024-02-21T05:18:02;6.45;;;2.88;;
76065;SDS011;64763;48.928;8.474;2024-02-21T05:20:28;4.85;;;2.92;;
76065;SDS011;64763;48.928;8.474;2024-02-21T05:22:53;8.48;;;3.35;;
76065;SDS011;64763;48.928;8.474;2024-02-21T05:25:19;6.75;;;3.05;;
76065;SDS011;64763;48.928;8.474;2024-02-21T05:27:44;7.95;;;3.25;;
76065;SDS011;64763;48.928;8.474;2024-02-21T05:30:11;5.05;;;2.58;;
76065;SDS011;64763;48.928;8.474;2024-02-21T05:32:37;7.45;;;3.10;;
76065;SDS011;64763;48.928;8.474;2024-02-21T05:35:02;7.28;;;2.90;;
76065;SDS011;64763;48.928;8.474;2024-02-21T05:37:27;6.75;;;3.40;;
76065;SDS011;64763;48.928;8.474;2024-02-21T05:39:53;6.63;;;3.38;;
76065;SDS011;64763;48.928;8.474;2024-02-21T05:42:18;6.55;;;3.30;;
76065;SDS011;64763;48.928;8.474;2024-02-21T05:44:44;10.63;;;3.22;;
76065;SDS011;64763;48.928;8.474;2024-02-21T05:47:12;7.03;;;2.92;;
76065;SDS011;64763;48.928;8.474;2024-02-21T05:49:40;9.82;;;3.45;;
76065;SDS011;64763;48.928;8.474;2024-02-21T05:52:05;8.30;;;3.55;;
76065;SDS011;64763;48.928;8.474;2024-02-21T05:54:31;6.63;;;3.05;;
76065;SDS011;64763;48.928;8.474;2024-02-21T05:56:56;6.63;;;2.95;;
76065;SDS011;64763;48.928;8.474;2024-02-21T05:59:22;10.10;;;2.97;;
76065;SDS011;64763;48.928;8.474;2024-02-21T06:01:54;6.47;;;3.13;;
76065;SDS011;64763;48.928;8.474;2024-02-21T06:04:22;10.68;;;3.92;;
76065;SDS011;64763;48.928;8.474;2024-02-21T06:06:48;8.95;;;4.60;;
76065;SDS011;64763;48.928;8.474;2024-02-21T06:09:13;14.02;;;6.50;;
76065;SDS011;64763;48.928;8.474;2024-02-21T06:11:38;9.75;;;4.78;;
76065;SDS011;64763;48.928;8.474;2024-02-21T06:14:04;7.40;;;3.92;;
76065;SDS011;64763;48.928;8.474;2024-02-21T06:16:29;5.97;;;3.15;;
76065;SDS011;64763;48.928;8.474;2024-02-21T06:18:54;7.75;;;3.85;;
76065;SDS011;64763;48.928;8.474;2024-02-21T06:21:20;6.72;;;3.92;;
76065;SDS011;64763;48.928;8.474;2024-02-21T06:23:45;6.80;;;4.15;;
76065;SDS011;64763;48.928;8.474;2024-02-21T06:26:10;12.40;;;4.82;;
76065;SDS011;64763;48.928;8.474;2024-02-21T06:28:36;18.63;;;9.35;;
76065;SDS011;64763;48.928;8.474;2024-02-21T06:31:02;15.15;;;8.85;;
76065;SDS011;64763;48.928;8.474;2024-02-21T06:33:27;12.43;;;7.50;;
76065;SDS011;64763;48.928;8.474;2024-02-21T06:35:52;12.23;;;6.72;;
76065;SDS011;64763;48.928;8.474;2024-02-21T06:38:19;12.50;;;6.20;;
76065;SDS011;64763;48.928;8.474;2024-02-21T06:40:44;6.78;;;4.40;;
76065;SDS011;64763;48.928;8.474;2024-02-21T06:43:14;10.85;;;4.65;;
76065;SDS011;64763;48.928;8.474;2024-02-21T06:45:39;8.75;;;4.47;;
76065;SDS011;64763;48.928;8.474;2024-02-21T06:48:05;10.52;;;4.35;;
76065;SDS011;64763;48.928;8.474;2024-02-21T06:50:30;10.00;;;4.18;;
76065;SDS011;64763;48.928;8.474;2024-02-21T06:52:56;8.88;;;4.40;;
76065;SDS011;64763;48.928;8.474;2024-02-21T06:55:21;6.93;;;4.00;;
76065;SDS011;64763;48.928;8.474;2024-02-21T06:57:46;8.48;;;3.47;;
76065;SDS011;64763;48.928;8.474;2024-02-21T07:00:13;5.97;;;2.92;;
76065;SDS011;64763;48.928;8.474;2024-02-21T07:02:41;7.63;;;3.10;;
76065;SDS011;64763;48.928;8.474;2024-02-21T07:05:07;7.72;;;3.13;;
76065;SDS011;64763;48.928;8.474;2024-02-21T07:07:32;6.32;;;2.53;;
76065;SDS011;64763;48.928;8.474;2024-02-21T07:10:00;7.88;;;2.63;;
76065;SDS011;64763;48.928;8.474;2024-02-21T07:12:26;4.95;;;2.45;;
76065;SDS011;64763;48.928;8.474;2024-02-21T07:14:51;6.25;;;2.70;;
76065;SDS011;64763;48.928;8.474;2024-02-21T07:17:16;5.80;;;2.42;;
76065;SDS011;64763;48.928;8.474;2024-02-21T07:19:42;4.90;;;2.53;;
76065;SDS011;64763;48.928;8.474;2024-02-21T07:22:07;6.35;;;2.38;;
76065;SDS011;64763;48.928;8.474;2024-02-21T07:24:32;6.45;;;2.10;;
76065;SDS011;64763;48.928;8.474;2024-02-21T07:26:57;5.15;;;2.03;;
76065;SDS011;64763;48.928;8.474;2024-02-21T07:29:29;4.82;;;2.67;;
76065;SDS011;64763;48.928;8.474;2024-02-21T07:31:54;3.42;;;2.10;;
76065;SDS011;64763;48.928;8.474;2024-02-21T07:34:19;5.22;;;2.65;;
76065;SDS011;64763;48.928;8.474;2024-02-21T07:36:45;7.63;;;4.13;;
76065;SDS011;64763;48.928;8.474;2024-02-21T07:39:10;10.75;;;4.68;;
76065;SDS011;64763;48.928;8.474;2024-02-21T07:41:36;8.40;;;4.75;;
76065;SDS011;64763;48.928;8.474;2024-02-21T07:44:01;11.32;;;4.75;;
76065;SDS011;64763;48.928;8.474;2024-02-21T07:46:28;7.32;;;4.15;;
76065;SDS011;64763;48.928;8.474;2024-02-21T07:48:53;9.77;;;4.85;;
76065;SDS011;64763;48.928;8.474;2024-02-21T07:51:18;7.95;;;3.85;;
76065;SDS011;64763;48.928;8.474;2024-02-21T07:53:44;9.57;;;3.63;;
76065;SDS011;64763;48.928;8.474;2024-02-21T07:56:13;6.70;;;3.15;;
76065;SDS011;64763;48.928;8.474;2024-02-21T07:58:40;6.18;;;2.95;;
76065;SDS011;64763;48.928;8.474;2024-02-21T08:01:08;6.80;;;3.47;;
76065;SDS011;64763;48.928;8.474;2024-02-21T08:03:33;10.48;;;2.65;;
76065;SDS011;64763;48.928;8.474;2024-02-21T08:05:59;9.88;;;3.20;;
76065;SDS011;64763;48.928;8.474;2024-02-21T08:08:24;7.88;;;3.45;;
76065;SDS011;64763;48.928;8.474;2024-02-21T08:10:50;9.10;;;2.88;;
76065;SDS011;64763;48.928;8.474;2024-02-21T08:13:15;7.50;;;3.55;;
76065;SDS011;64763;48.928;8.474;2024-02-21T08:15:41;6.22;;;3.47;;
76065;SDS011;64763;48.928;8.474;2024-02-21T08:18:07;9.23;;;3.95;;
76065;SDS011;64763;48.928;8.474;2024-02-21T08:20:32;9.18;;;3.42;;
76065;SDS011;64763;48.928;8.474;2024-02-21T08:22:58;5.60;;;2.58;;
76065;SDS011;64763;48.928;8.474;2024-02-21T08:25:23;8.90;;;3.70;;
76065;SDS011;64763;48.928;8.474;2024-02-21T08:27:48;5.22;;;2.95;;
76065;SDS011;64763;48.928;8.474;2024-02-21T08:30:14;6.63;;;3.22;;
76065;SDS011;64763;48.928;8.474;2024-02-21T08:32:39;8.23;;;3.60;;
76065;SDS011;64763;48.928;8.474;2024-02-21T08:35:05;7.00;;;3.10;;
76065;SDS011;64763;48.928;8.474;2024-02-21T08:37:31;7.30;;;3.35;;
76065;SDS011;64763;48.928;8.474;2024-02-21T08:39:56;5.93;;;3.25;;
76065;SDS011;64763;48.928;8.474;2024-02-21T08:42:21;8.00;;;3.40;;
76065;SDS011;64763;48.928;8.474;2024-02-21T08:44:47;7.47;;;3.10;;
76065;SDS011;64763;48.928;8.474;2024-02-21T08:47:12;3.75;;;2.90;;
76065;SDS011;64763;48.928;8.474;2024-02-21T08:49:38;6.88;;;3.20;;
76065;SDS011;64763;48.928;8.474;2024-02-21T08:52:03;7.32;;;3.15;;
76065;SDS011;64763;48.928;8.474;2024-02-21T08:54:30;6.22;;;3.15;;
76065;SDS011;64763;48.928;8.474;2024-02-21T08:56:56;7.63;;;2.33;;
76065;SDS011;64763;48.928;8.474;2024-02-21T08:59:21;5.45;;;2.67;;
76065;SDS011;64763;48.928;8.474;2024-02-21T09:01:47;8.63;;;2.85;;
76065;SDS011;64763;48.928;8.474;2024-02-21T09:04:12;5.28;;;2.55;;
76065;SDS011;64763;48.928;8.474;2024-02-21T09:06:38;6.22;;;2.95;;
76065;SDS011;64763;48.928;8.474;2024-02-21T09:09:08;7.40;;;3.35;;
76065;SDS011;64763;48.928;8.474;2024-02-21T09:11:34;6.38;;;3.03;;
76065;SDS011;64763;48.928;8.474;2024-02-21T09:14:00;4.10;;;2.00;;
76065;SDS011;64763;48.928;8.474;2024-02-21T09:16:25;5.65;;;2.20;;
76065;SDS011;64763;48.928;8.474;2024-02-21T09:18:50;6.03;;;2.47;;
76065;SDS011;64763;48.928;8.474;2024-02-21T09:21:17;6.78;;;2.33;;
76065;SDS011;64763;48.928;8.474;2024-02-21T09:23:43;6.00;;;2.30;;
76065;SDS011;64763;48.928;8.474;2024-02-21T09:26:08;8.63;;;2.95;;
76065;SDS011;64763;48.928;8.474;2024-02-21T09:28:38;3.22;;;2.33;;
76065;SDS011;64763;48.928;8.474;2024-02-21T09:31:03;5.13;;;2.58;;
76065;SDS011;64763;48.928;8.474;2024-02-21T09:33:29;5.00;;;2.05;;
76065;SDS011;64763;48.928;8.474;2024-02-21T09:35:55;7.43;;;3.40;;
76065;SDS011;64763;48.928;8.474;2024-02-21T09:38:20;7.43;;;2.60;;
76065;SDS011;64763;48.928;8.474;2024-02-21T09:40:46;8.35;;;2.55;;
76065;SDS011;64763;48.928;8.474;2024-02-21T09:43:12;5.82;;;2.67;;
76065;SDS011;64763;48.928;8.474;2024-02-21T09:45:42;6.57;;;2.35;;
76065;SDS011;64763;48.928;8.474;2024-02-21T09:51:10;6.57;;;2.10;;
76065;SDS011;64763;48.928;8.474;2024-02-21T09:53:37;6.10;;;2.17;;
76065;SDS011;64763;48.928;8.474;2024-02-21T09:56:05;4.97;;;2.72;;
76065;SDS011;64763;48.928;8.474;2024-02-21T09:58:32;8.32;;;2.60;;
76065;SDS011;64763;48.928;8.474;2024-02-21T10:00:59;8.65;;;2.95;;
76065;SDS011;64763;48.928;8.474;2024-02-21T10:03:25;5.68;;;2.60;;
76065;SDS011;64763;48.928;8.474;2024-02-21T10:05:50;7.72;;;2.63;;
76065;SDS011;64763;48.928;8.474;2024-02-21T10:08:18;4.40;;;2.40;;
76065;SDS011;64763;48.928;8.474;2024-02-21T10:10:45;5.45;;;2.80;;
76065;SDS011;64763;48.928;8.474;2024-02-21T10:13:11;8.05;;;2.90;;
76065;SDS011;64763;48.928;8.474;2024-02-21T10:15:46;7.40;;;3.00;;
76065;SDS011;64763;48.928;8.474;2024-02-21T10:18:14;11.05;;;2.95;;
76065;SDS011;64763;48.928;8.474;2024-02-21T10:20:42;12.80;;;3.20;;
76065;SDS011;64763;48.928;8.474;2024-02-21T10:23:09;8.95;;;2.22;;
76065;SDS011;64763;48.928;8.474;2024-02-21T10:25:37;6.80;;;2.75;;
76065;SDS011;64763;48.928;8.474;2024-02-21T10:28:13;7.13;;;2.83;;
76065;SDS011;64763;48.928;8.474;2024-02-21T10:30:48;8.52;;;2.47;;
76065;SDS011;64763;48.928;8.474;2024-02-21T10:33:15;6.45;;;2.58;;
76065;SDS011;64763;48.928;8.474;2024-02-21T10:35:41;7.20;;;2.75;;
76065;SDS011;64763;48.928;8.474;2024-02-21T10:38:09;6.05;;;2.88;;
76065;SDS011;64763;48.928;8.474;2024-02-21T10:40:34;9.07;;;2.60;;
76065;SDS011;64763;48.928;8.474;2024-02-21T10:43:00;6.45;;;2.80;;
76065;SDS011;64763;48.928;8.474;2024-02-21T10:45:30;8.88;;;3.08;;
76065;SDS011;64763;48.928;8.474;2024-02-21T10:48:01;5.13;;;2.95;;
76065;SDS011;64763;48.928;8.474;2024-02-21T10:50:31;5.75;;;2.67;;
76065;SDS011;64763;48.928;8.474;2024-02-21T10:55:44;7.40;;;3.22;;
76065;SDS011;64763;48.928;8.474;2024-02-21T10:58:13;7.93;;;2.97;;
76065;SDS011;64763;48.928;8.474;2024-02-21T11:00:39;7.85;;;2.45;;
76065;SDS011;64763;48.928;8.474;2024-02-21T11:03:05;4.78;;;2.50;;
76065;SDS011;64763;48.928;8.474;2024-02-21T11:05:30;6.07;;;2.20;;
76065;SDS011;64763;48.928;8.474;2024-02-21T11:07:56;8.82;;;2.40;;
76065;SDS011;64763;48.928;8.474;2024-02-21T11:10:25;6.20;;;2.70;;
76065;SDS011;64763;48.928;8.474;2024-02-21T11:13:09;6.60;;;2.78;;
76065;SDS011;64763;48.928;8.474;2024-02-21T11:15:35;4.22;;;2.45;;
76065;SDS011;64763;48.928;8.474;2024-02-21T11:18:00;5.10;;;2.33;;
76065;SDS011;64763;48.928;8.474;2024-02-21T11:20:32;6.57;;;2.70;;
76065;SDS011;64763;48.928;8.474;2024-02-21T11:22:59;3.88;;;2.50;;
76065;SDS011;64763;48.928;8.474;2024-02-21T11:25:26;5.55;;;2.30;;
76065;SDS011;64763;48.928;8.474;2024-02-21T11:27:58;6.95;;;2.03;;
76065;SDS011;64763;48.928;8.474;2024-02-21T11:30:32;4.00;;;2.40;;
76065;SDS011;64763;48.928;8.474;2024-02-21T11:32:59;6.88;;;2.78;;
76065;SDS011;64763;48.928;8.474;2024-02-21T11:35:25;7.13;;;2.22;;
76065;SDS011;64763;48.928;8.474;2024-02-21T11:37:56;6.47;;;2.20;;
76065;SDS011;64763;48.928;8.474;2024-02-21T11:40:21;4.95;;;2.03;;
76065;SDS011;64763;48.928;8.474;2024-02-21T11:42:47;6.20;;;2.25;;
76065;SDS011;64763;48.928;8.474;2024-02-21T11:45:14;5.45;;;2.60;;
76065;SDS011;64763;48.928;8.474;2024-02-21T11:47:42;5.05;;;2.40;;
76065;SDS011;64763;48.928;8.474;2024-02-21T11:50:10;6.38;;;1.90;;
76065;SDS011;64763;48.928;8.474;2024-02-21T11:52:36;5.13;;;2.25;;
76065;SDS011;64763;48.928;8.474;2024-02-21T11:55:01;4.00;;;2.20;;
76065;SDS011;64763;48.928;8.474;2024-02-21T11:57:29;6.53;;;1.92;;
76065;SDS011;64763;48.928;8.474;2024-02-21T11:59:55;2.95;;;1.92;;
76065;SDS011;64763;48.928;8.474;2024-02-21T12:02:20;3.08;;;1.90;;
76065;SDS011;64763;48.928;8.474;2024-02-21T12:04:45;6.18;;;2.42;;
76065;SDS011;64763;48.928;8.474;2024-02-21T12:07:11;3.58;;;1.90;;
76065;SDS011;64763;48.928;8.474;2024-02-21T12:09:36;6.63;;;2.45;;
76065;SDS011;64763;48.928;8.474;2024-02-21T12:12:02;4.68;;;2.30;;
76065;SDS011;64763;48.928;8.474;2024-02-21T12:14:29;5.28;;;2.55;;
76065;SDS011;64763;48.928;8.474;2024-02-21T12:16:55;3.65;;;2.45;;
76065;SDS011;64763;48.928;8.474;2024-02-21T12:19:21;5.43;;;1.95;;
76065;SDS011;64763;48.928;8.474;2024-02-21T12:21:47;3.05;;;2.05;;
76065;SDS011;64763;48.928;8.474;2024-02-21T12:24:17;5.40;;;1.90;;
76065;SDS011;64763;48.928;8.474;2024-02-21T12:26:46;6.18;;;2.40;;
76065;SDS011;64763;48.928;8.474;2024-02-21T12:29:12;4.75;;;2.20;;
76065;SDS011;64763;48.928;8.474;2024-02-21T12:31:37;4.82;;;2.05;;
76065;SDS011;64763;48.928;8.474;2024-02-21T12:34:03;9.75;;;2.17;;
76065;SDS011;64763;48.928;8.474;2024-02-21T12:36:32;5.40;;;1.90;;
76065;SDS011;64763;48.928;8.474;2024-02-21T12:38:58;4.55;;;2.17;;
76065;SDS011;64763;48.928;8.474;2024-02-21T12:41:25;5.10;;;2.15;;
76065;SDS011;64763;48.928;8.474;2024-02-21T12:43:52;4.88;;;2.00;;
76065;SDS011;64763;48.928;8.474;2024-02-21T12:46:17;4.85;;;1.85;;
76065;SDS011;64763;48.928;8.474;2024-02-21T12:48:42;5.03;;;1.80;;
76065;SDS011;64763;48.928;8.474;2024-02-21T12:51:08;4.75;;;2.00;;
76065;SDS011;64763;48.928;8.474;2024-02-21T12:53:33;4.85;;;2.00;;
76065;SDS011;64763;48.928;8.474;2024-02-21T12:55:58;5.22;;;1.80;;
76065;SDS011;64763;48.928;8.474;2024-02-21T12:58:24;3.95;;;1.90;;
76065;SDS011;64763;48.928;8.474;2024-02-21T13:00:49;4.03;;;1.50;;
76065;SDS011;64763;48.928;8.474;2024-02-21T13:03:15;3.75;;;2.13;;
76065;SDS011;64763;48.928;8.474;2024-02-21T13:05:40;4.05;;;2.03;;
76065;SDS011;64763;48.928;8.474;2024-02-21T13:08:06;3.67;;;2.05;;
76065;SDS011;64763;48.928;8.474;2024-02-21T13:10:31;4.65;;;2.15;;
76065;SDS011;64763;48.928;8.474;2024-02-21T13:12:59;6.25;;;1.80;;
76065;SDS011;64763;48.928;8.474;2024-02-21T13:15:25;5.30;;;2.10;;
76065;SDS011;64763;48.928;8.474;2024-02-21T13:17:50;3.78;;;1.98;;
76065;SDS011;64763;48.928;8.474;2024-02-21T13:20:15;5.47;;;2.00;;
76065;SDS011;64763;48.928;8.474;2024-02-21T13:22:41;4.35;;;1.70;;
76065;SDS011;64763;48.928;8.474;2024-02-21T13:25:06;6.45;;;2.83;;
76065;SDS011;64763;48.928;8.474;2024-02-21T13:27:32;5.40;;;2.38;;
76065;SDS011;64763;48.928;8.474;2024-02-21T13:29:58;4.25;;;2.20;;
76065;SDS011;64763;48.928;8.474;2024-02-21T13:32:25;4.50;;;2.55;;
76065;SDS011;64763;48.928;8.474;2024-02-21T13:34:50;3.75;;;2.30;;
76065;SDS011;64763;48.928;8.474;2024-02-21T13:37:20;4.95;;;2.47;;
76065;SDS011;64763;48.928;8.474;2024-02-21T13:39:46;8.45;;;2.42;;
76065;SDS011;64763;48.928;8.474;2024-02-21T13:42:12;5.90;;;2.25;;
76065;SDS011;64763;48.928;8.474;2024-02-21T13:44:37;4.30;;;2.13;;
76065;SDS011;64763;48.928;8.474;2024-02-21T13:47:03;4.65;;;2.13;;
76065;SDS011;64763;48.928;8.474;2024-02-21T13:49:29;5.15;;;2.20;;
76065;SDS011;64763;48.928;8.474;2024-02-21T13:51:55;5.47;;;2.33;;
76065;SDS011;64763;48.928;8.474;2024-02-21T13:54:20;4.75;;;2.33;;
76065;SDS011;64763;48.928;8.474;2024-02-21T13:56:46;5.90;;;2.22;;
76065;SDS011;64763;48.928;8.474;2024-02-21T13:59:12;5.05;;;2.35;;
76065;SDS011;64763;48.928;8.474;2024-02-21T14:01:40;4.38;;;1.80;;
76065;SDS011;64763;48.928;8.474;2024-02-21T14:04:05;6.53;;;2.00;;
76065;SDS011;64763;48.928;8.474;2024-02-21T14:06:32;5.38;;;2.15;;
76065;SDS011;64763;48.928;8.474;2024-02-21T14:08:57;4.88;;;1.98;;
76065;SDS011;64763;48.928;8.474;2024-02-21T14:11:22;5.05;;;1.83;;
76065;SDS011;64763;48.928;8.474;2024-02-21T14:13:48;3.80;;;2.17;;
76065;SDS011;64763;48.928;8.474;2024-02-21T14:16:13;5.43;;;2.55;;
76065;SDS011;64763;48.928;8.474;2024-02-21T14:18:39;3.58;;;2.10;;
76065;SDS011;64763;48.928;8.474;2024-02-21T14:21:08;5.50;;;2.33;;
76065;SDS011;64763;48.928;8.474;2024-02-21T14:23:37;5.78;;;2.10;;
76065;SDS011;64763;48.928;8.474;2024-02-21T14:26:03;3.78;;;1.90;;
76065;SDS011;64763;48.928;8.474;2024-02-21T14:28:29;4.60;;;2.10;;
76065;SDS011;64763;48.928;8.474;2024-02-21T14:30:54;4.00;;;1.80;;
76065;SDS011;64763;48.928;8.474;2024-02-21T14:33:22;5.50;;;2.00;;
76065;SDS011;64763;48.928;8.474;2024-02-21T14:35:54;6.05;;;2.20;;
76065;SDS011;64763;48.928;8.474;2024-02-21T14:38:19;3.33;;;1.80;;
76065;SDS011;64763;48.928;8.474;2024-02-21T14:40:45;4.43;;;1.80;;
76065;SDS011;64763;48.928;8.474;2024-02-21T14:43:10;4.22;;;2.00;;
76065;SDS011;64763;48.928;8.474;2024-02-21T14:45:35;3.72;;;1.85;;